createdAt,value
2019-06-01T00:01:18.508Z,13.20
2019-06-01T00:06:18.488Z,13.10
2019-06-01T00:08:49.295Z,13.10
2019-06-01T00:11:19.326Z,13.00
2019-06-01T00:16:19.471Z,13.00
2019-06-01T00:18:50.394Z,12.90
2019-06-01T00:21:20.432Z,12.90
2019-06-01T00:23:50.249Z,12.80
2019-06-01T00:26:20.126Z,12.90
2019-06-01T00:28:50.070Z,12.70
2019-06-01T00:33:49.599Z,12.80
2019-06-01T00:36:19.492Z,12.70
2019-06-01T00:38:49.967Z,12.50
2019-06-01T00:41:20.152Z,12.60
2019-06-01T00:46:20.568Z,12.60
2019-06-01T00:48:50.466Z,12.50
2019-06-01T00:51:20.813Z,12.50
2019-06-01T00:53:51.803Z,12.50
2019-06-01T00:56:21.973Z,12.50
2019-06-01T00:58:52.040Z,12.50
2019-06-01T01:01:21.993Z,12.50
2019-06-01T01:03:52.371Z,12.50
2019-06-01T01:06:22.354Z,12.50
2019-06-01T01:08:52.992Z,12.50
2019-06-01T01:11:22.901Z,12.50
2019-06-01T01:13:53.566Z,12.40
2019-06-01T01:16:23.766Z,12.40
2019-06-01T01:18:53.865Z,12.40
2019-06-01T01:21:23.733Z,12.30
2019-06-01T01:23:54.739Z,12.30
2019-06-01T01:26:24.663Z,12.30
2019-06-01T01:28:54.937Z,12.30
2019-06-01T01:31:24.796Z,12.20
2019-06-01T01:33:55.488Z,12.20
2019-06-01T01:36:25.408Z,12.10
2019-06-01T01:38:56.258Z,12.10
2019-06-01T01:41:26.285Z,12.10
2019-06-01T01:46:26.393Z,11.90
2019-06-01T01:48:56.246Z,12.00
2019-06-01T01:51:26.098Z,11.90
2019-06-01T01:53:56.624Z,11.90
2019-06-01T01:56:26.500Z,11.90
2019-06-01T01:58:56.511Z,11.90
2019-06-01T02:01:26.317Z,11.80
2019-06-01T02:03:57.379Z,11.90
2019-06-01T02:06:29.230Z,11.90
2019-06-01T02:16:27.804Z,11.90
2019-06-01T02:21:28.573Z,11.90
2019-06-01T02:23:59.084Z,11.90
2019-06-01T02:26:29.047Z,11.70
2019-06-01T02:28:59.475Z,11.70
2019-06-01T02:31:41.107Z,11.60
2019-06-01T02:34:03.053Z,11.70
2019-06-01T02:39:03.603Z,11.60
2019-06-01T02:41:34.638Z,11.60
2019-06-01T02:46:36.270Z,11.60
2019-06-01T02:49:06.538Z,11.60
2019-06-01T02:54:06.312Z,11.60
2019-06-01T02:56:36.354Z,11.70
2019-06-01T02:59:06.739Z,11.60
2019-06-01T03:06:42.471Z,11.60
2019-06-01T03:09:13.157Z,11.50
2019-06-01T03:11:43.214Z,11.40
2019-06-01T03:14:13.260Z,11.40
2019-06-01T03:16:43.948Z,11.40
2019-06-01T03:19:15.909Z,11.40
2019-06-01T03:21:49.510Z,11.40
2019-06-01T03:24:24.484Z,11.30
2019-06-01T03:26:54.756Z,11.30
2019-06-01T03:29:27.169Z,11.30
2019-06-01T03:32:17.554Z,11.30
2019-06-01T03:34:28.893Z,11.30
2019-06-01T03:36:59.150Z,11.20
2019-06-01T03:41:58.512Z,11.30
2019-06-01T03:44:28.466Z,11.30
2019-06-01T03:49:27.511Z,11.40
2019-06-01T03:54:26.717Z,11.40
2019-06-01T03:56:56.533Z,11.50
2019-06-01T03:59:26.343Z,11.50
2019-06-01T04:01:56.148Z,11.60
2019-06-01T04:04:25.957Z,11.50
2019-06-01T04:06:55.894Z,11.60
2019-06-01T04:09:25.752Z,11.70
2019-06-01T04:11:55.675Z,11.70
2019-06-01T04:14:25.484Z,11.80
2019-06-01T04:16:55.277Z,11.90
2019-06-01T04:19:25.093Z,12.10
2019-06-01T04:21:54.961Z,12.20
2019-06-01T04:24:24.773Z,12.30
2019-06-01T04:26:54.565Z,12.40
2019-06-01T04:29:24.404Z,12.50
2019-06-01T04:31:54.205Z,12.60
2019-06-01T04:34:24.171Z,12.70
2019-06-01T04:36:54.013Z,12.80
2019-06-01T04:39:23.804Z,13.00
2019-06-01T04:41:53.616Z,13.20
2019-06-01T04:44:23.662Z,13.30
2019-06-01T04:46:53.477Z,13.50
2019-06-01T04:49:23.280Z,13.70
2019-06-01T04:51:53.136Z,13.90
2019-06-01T04:54:22.946Z,14.10
2019-06-01T04:56:52.750Z,14.10
2019-06-01T04:59:22.585Z,14.30
2019-06-01T05:01:52.395Z,14.50
2019-06-01T05:04:22.281Z,14.60
2019-06-01T05:06:52.088Z,14.70
2019-06-01T05:09:21.918Z,14.80
2019-06-01T05:14:20.962Z,15.10
2019-06-01T05:19:20.134Z,15.30
2019-06-01T05:21:50.261Z,15.40
2019-06-01T05:29:18.829Z,15.80
2019-06-01T05:31:48.948Z,15.90
2019-06-01T05:34:18.788Z,16.10
2019-06-01T05:36:48.929Z,16.30
2019-06-01T05:39:18.926Z,16.30
2019-06-01T05:41:48.842Z,16.30
2019-06-01T05:44:19.230Z,16.40
2019-06-01T05:49:18.624Z,16.50
2019-06-01T05:54:18.861Z,16.60
2019-06-01T05:56:48.873Z,16.70
2019-06-01T05:59:18.808Z,16.50
2019-06-01T06:04:18.040Z,16.80
2019-06-01T06:06:48.114Z,16.60
2019-06-01T06:09:19.045Z,16.70
2019-06-01T06:11:53.176Z,17.10
2019-06-01T06:24:21.253Z,22.80
2019-06-01T06:29:20.953Z,24.00
2019-06-01T06:31:51.088Z,23.90
2019-06-01T06:34:21.599Z,24.30
2019-06-01T06:36:51.588Z,22.50
2019-06-01T06:39:22.116Z,24.00
2019-06-01T06:41:51.983Z,24.70
2019-06-01T06:44:22.659Z,24.70
2019-06-01T06:46:52.582Z,24.20
2019-06-01T06:49:23.292Z,24.70
2019-06-01T06:51:53.488Z,25.30
2019-06-01T06:54:23.927Z,24.80
2019-06-01T06:56:54.024Z,24.00
2019-06-01T06:59:24.602Z,24.20
2019-06-01T07:01:54.564Z,25.70
2019-06-01T07:04:25.295Z,26.40
2019-06-01T07:06:55.509Z,26.00
2019-06-01T07:09:26.171Z,25.90
2019-06-01T07:11:56.251Z,26.10
2019-06-01T07:14:26.049Z,26.40
2019-06-01T07:16:55.870Z,27.60
2019-06-01T07:19:25.803Z,27.50
2019-06-01T07:21:55.669Z,28.10
2019-06-01T07:24:26.037Z,27.20
2019-06-01T07:26:55.968Z,26.90
2019-06-01T07:29:26.290Z,26.50
2019-06-01T07:31:56.125Z,27.10
2019-06-01T07:34:35.856Z,28.00
2019-06-01T07:36:57.556Z,25.40
2019-06-01T07:39:28.960Z,26.30
2019-06-01T07:41:58.951Z,27.50
2019-06-01T07:44:29.347Z,29.10
2019-06-01T07:46:59.133Z,30.00
2019-06-01T07:49:29.170Z,29.90
2019-06-01T07:52:11.147Z,29.90
2019-06-01T07:54:30.500Z,30.70
2019-06-01T07:57:00.309Z,32.30
2019-06-01T07:59:30.524Z,32.50
2019-06-01T08:02:00.957Z,32.40
2019-06-01T08:04:47.591Z,33.00
2019-06-01T08:07:02.319Z,34.00
2019-06-01T08:09:32.211Z,34.10
2019-06-01T08:12:02.218Z,34.20
2019-06-01T08:14:32.889Z,34.30
2019-06-01T08:17:02.820Z,34.60
2019-06-01T08:19:32.628Z,38.60
2019-06-01T08:22:02.775Z,35.90
2019-06-01T08:24:32.725Z,34.50
2019-06-01T08:27:02.606Z,33.70
2019-06-01T08:29:32.850Z,33.50
2019-06-01T08:32:02.782Z,32.50
2019-06-01T08:34:33.120Z,32.60
2019-06-01T08:37:03.077Z,32.60
2019-06-01T08:39:34.228Z,32.50
2019-06-01T08:42:04.405Z,31.10
2019-06-01T08:44:34.485Z,31.50
2019-06-01T08:47:04.422Z,31.10
2019-06-01T08:54:34.339Z,31.00
2019-06-01T08:59:34.608Z,29.90
2019-06-01T09:04:34.846Z,28.80
2019-06-01T09:09:35.180Z,27.40
2019-06-01T09:27:01.867Z,25.40
2019-06-01T09:32:02.022Z,25.60
2019-06-01T09:37:02.616Z,25.50
2019-06-01T09:39:33.168Z,25.50
2019-06-01T09:42:03.009Z,25.50
2019-06-01T09:44:33.556Z,24.80
2019-06-01T09:47:03.445Z,25.20
2019-06-01T09:52:04.094Z,25.50
2019-06-01T09:54:34.614Z,25.60
2019-06-01T09:57:05.761Z,25.20
2019-06-01T09:59:36.054Z,25.10
2019-06-01T10:04:43.524Z,25.40
2019-06-01T10:12:12.060Z,25.50
2019-06-01T10:14:42.478Z,25.60
2019-06-01T10:17:12.551Z,25.50
2019-06-01T10:19:43.006Z,25.60
2019-06-01T10:24:42.256Z,25.70
2019-06-01T10:27:12.074Z,25.80
2019-06-01T10:32:12.848Z,25.40
2019-06-01T10:34:42.704Z,25.50
2019-06-01T10:39:42.229Z,25.50
2019-06-01T10:42:12.350Z,25.50
2019-06-01T10:44:45.680Z,25.60
2019-06-01T10:49:43.413Z,25.40
2019-06-01T10:52:13.309Z,25.70
2019-06-01T10:54:43.197Z,25.80
2019-06-01T10:57:13.279Z,25.90
2019-06-01T11:02:12.604Z,25.90
2019-06-01T11:04:43.372Z,26.00
2019-06-01T11:07:13.414Z,26.00
2019-06-01T11:09:43.343Z,25.90
2019-06-01T11:12:13.293Z,25.70
2019-06-01T11:19:43.721Z,25.60
2019-06-01T11:22:13.737Z,25.40
2019-06-01T11:27:13.970Z,25.40
2019-06-01T11:29:50.812Z,25.30
2019-06-01T11:32:15.393Z,25.00
2019-06-01T11:34:45.177Z,25.20
2019-06-01T11:37:15.834Z,25.50
2019-06-01T11:39:45.841Z,25.60
2019-06-01T11:42:19.518Z,25.50
2019-06-01T11:44:47.273Z,25.80
2019-06-01T11:47:17.191Z,26.10
2019-06-01T11:49:47.399Z,25.80
2019-06-01T11:52:17.209Z,25.60
2019-06-01T11:54:47.024Z,25.70
2019-06-01T11:57:16.832Z,26.10
2019-06-01T12:02:15.935Z,26.50
2019-06-01T12:04:46.395Z,26.60
2019-06-01T12:09:47.420Z,26.40
2019-06-01T12:12:17.321Z,26.20
2019-06-01T12:14:47.127Z,26.20
2019-06-01T12:17:16.942Z,26.40
2019-06-01T12:19:47.046Z,26.50
2019-06-01T12:22:17.125Z,26.30
2019-06-01T12:24:47.399Z,26.30
2019-06-01T12:27:17.454Z,25.90
2019-06-01T12:29:48.298Z,25.80
2019-06-01T12:32:18.895Z,25.90
2019-06-01T12:34:48.762Z,26.10
2019-06-01T12:37:35.981Z,26.10
2019-06-01T12:42:21.193Z,26.40
2019-06-01T12:44:52.094Z,26.50
2019-06-01T12:47:22.024Z,26.60
2019-06-01T12:49:52.670Z,26.50
2019-06-01T12:52:22.924Z,26.30
2019-06-01T12:54:53.254Z,26.20
2019-06-01T12:57:23.163Z,26.30
2019-06-01T12:59:53.324Z,26.70
2019-06-01T13:04:53.097Z,26.90
2019-06-01T13:07:23.120Z,26.70
2019-06-01T13:09:53.314Z,26.70
2019-06-01T13:12:23.245Z,26.90
2019-06-01T13:14:53.309Z,26.90
2019-06-01T13:17:23.133Z,26.80
2019-06-01T13:19:53.017Z,26.80
2019-06-01T13:22:22.981Z,26.80
2019-06-01T13:24:52.809Z,27.00
2019-06-01T13:29:52.249Z,27.00
2019-06-01T13:32:22.136Z,27.00
2019-06-01T13:34:52.068Z,27.00
2019-06-01T13:39:56.576Z,27.00
2019-06-01T13:44:51.887Z,27.20
2019-06-01T13:47:21.674Z,27.20
2019-06-01T13:49:51.884Z,27.30
2019-06-01T13:52:24.609Z,27.10
2019-06-01T13:54:54.686Z,27.00
2019-06-01T13:57:24.740Z,27.00
2019-06-01T13:59:55.033Z,27.10
2019-06-01T14:02:25.025Z,27.20
2019-06-01T14:04:56.171Z,27.30
2019-06-01T14:07:27.366Z,27.50
2019-06-01T14:09:57.221Z,27.50
2019-06-01T14:12:27.021Z,27.60
2019-06-01T14:14:57.147Z,27.70
2019-06-01T14:17:26.945Z,27.70
2019-06-01T14:19:56.757Z,27.60
2019-06-01T14:22:26.554Z,27.40
2019-06-01T14:25:11.493Z,26.90
2019-06-01T14:29:57.108Z,27.10
2019-06-01T14:32:27.206Z,27.30
2019-06-01T14:34:57.340Z,27.50
2019-06-01T14:37:27.145Z,27.50
2019-06-01T14:42:27.102Z,27.50
2019-06-01T14:47:26.222Z,27.50
2019-06-01T14:52:25.497Z,27.50
2019-06-01T14:57:25.681Z,27.50
2019-06-01T14:59:56.116Z,27.50
2019-06-01T15:02:26.271Z,27.40
2019-06-01T15:04:56.465Z,27.20
2019-06-01T15:09:56.358Z,27.30
2019-06-01T15:12:26.396Z,27.40
2019-06-01T15:14:57.499Z,27.30
2019-06-01T15:19:58.175Z,27.40
2019-06-01T15:22:28.075Z,27.30
2019-06-01T15:27:28.153Z,27.10
2019-06-01T15:29:59.022Z,27.10
2019-06-01T15:32:28.969Z,27.10
2019-06-01T15:34:59.912Z,27.00
2019-06-01T15:37:30.257Z,26.90
2019-06-01T15:40:02.961Z,27.00
2019-06-01T15:42:32.956Z,27.10
2019-06-01T15:45:02.909Z,27.20
2019-06-01T15:47:32.789Z,27.20
2019-06-01T15:50:02.718Z,27.20
2019-06-01T15:55:02.849Z,27.10
2019-06-01T15:57:32.806Z,27.10
2019-06-01T16:00:03.127Z,27.10
2019-06-01T16:02:33.132Z,26.90
2019-06-01T16:05:03.357Z,27.00
2019-06-01T16:07:33.748Z,27.00
2019-06-01T16:10:06.594Z,27.00
2019-06-01T16:12:35.482Z,27.10
2019-06-01T16:15:05.998Z,27.00
2019-06-01T16:17:35.803Z,26.90
2019-06-01T16:20:06.397Z,26.80
2019-06-01T16:22:36.253Z,26.80
2019-06-01T16:25:06.721Z,26.80
2019-06-01T16:27:36.529Z,26.80
2019-06-01T16:30:06.822Z,26.80
2019-06-01T16:32:39.421Z,26.60
2019-06-01T16:35:08.665Z,26.70
2019-06-01T16:37:38.552Z,26.70
2019-06-01T16:40:10.592Z,26.70
2019-06-01T16:42:40.380Z,26.70
2019-06-01T16:45:10.735Z,26.70
2019-06-01T16:47:40.542Z,26.70
2019-06-01T16:50:10.948Z,26.60
2019-06-01T16:52:41.069Z,26.60
2019-06-01T16:55:12.928Z,26.50
2019-06-01T16:57:42.998Z,26.50
2019-06-01T17:02:44.239Z,26.50
2019-06-01T17:05:15.358Z,26.50
2019-06-01T17:07:45.175Z,26.50
2019-06-01T17:12:46.345Z,26.40
2019-06-01T17:15:16.392Z,26.30
2019-06-01T17:17:46.200Z,26.30
2019-06-01T17:23:20.923Z,26.20
2019-06-01T17:25:34.600Z,26.00
2019-06-01T17:28:05.231Z,25.90
2019-06-01T17:30:35.364Z,25.90
2019-06-01T17:33:06.521Z,25.80
2019-06-01T17:38:07.252Z,25.50
2019-06-01T17:40:42.322Z,25.50
2019-06-01T17:43:09.123Z,25.30
2019-06-01T17:45:39.107Z,25.20
2019-06-01T17:48:21.633Z,25.20
2019-06-01T17:50:40.949Z,25.00
2019-06-01T17:55:40.557Z,24.70
2019-06-01T17:58:12.190Z,24.70
2019-06-01T18:00:42.313Z,24.40
2019-06-01T18:03:12.283Z,24.30
2019-06-01T18:05:42.535Z,24.20
2019-06-01T18:08:12.820Z,24.10
2019-06-01T18:10:53.270Z,24.00
2019-06-01T18:13:15.085Z,23.90
2019-06-01T18:15:44.961Z,23.80
2019-06-01T18:18:14.909Z,23.70
2019-06-01T18:20:44.994Z,23.60
2019-06-01T18:23:15.242Z,23.50
2019-06-01T18:25:45.181Z,23.40
2019-06-01T18:28:19.457Z,23.40
2019-06-01T18:30:47.193Z,23.20
2019-06-01T18:33:17.072Z,23.20
2019-06-01T18:35:46.978Z,23.00
2019-06-01T18:38:16.921Z,22.90
2019-06-01T18:40:46.884Z,22.70
2019-06-01T18:43:19.034Z,22.60
2019-06-01T18:45:49.426Z,22.50
2019-06-01T18:48:19.937Z,22.40
2019-06-01T18:53:19.197Z,22.20
2019-06-01T18:55:49.228Z,22.20
2019-06-01T18:58:19.105Z,21.90
2019-06-01T19:00:48.888Z,21.70
2019-06-01T19:03:19.009Z,21.60
2019-06-01T19:05:48.880Z,21.50
2019-06-01T19:10:49.122Z,21.40
2019-06-01T19:18:18.150Z,21.10
2019-06-01T19:20:47.936Z,20.90
2019-06-01T19:23:21.298Z,20.80
2019-06-01T19:25:49.574Z,20.70
2019-06-01T19:28:19.483Z,20.60
2019-06-01T19:40:49.066Z,20.10
2019-06-01T19:45:48.179Z,20.00
2019-06-01T19:50:49.272Z,19.70
2019-06-01T19:53:19.296Z,19.70
2019-06-01T19:55:49.103Z,19.60
2019-06-01T20:05:49.340Z,19.20
2019-06-01T20:08:19.284Z,19.10
2019-06-01T20:10:49.255Z,19.00
2019-06-01T20:13:19.282Z,19.00
2019-06-01T20:15:49.248Z,18.90
2019-06-01T20:18:19.268Z,18.90
2019-06-01T20:23:19.571Z,18.70
2019-06-01T20:25:50.008Z,18.70
2019-06-01T20:30:49.511Z,18.60
2019-06-01T20:33:20.458Z,18.50
2019-06-01T20:35:51.089Z,18.40
2019-06-01T20:38:23.008Z,18.40
2019-06-01T20:40:52.663Z,18.30
2019-06-01T20:45:56.558Z,18.40
2019-06-01T20:48:24.302Z,18.30
2019-06-01T21:05:51.849Z,17.70
2019-06-01T21:08:22.407Z,17.70
2019-06-01T21:10:52.597Z,17.70
2019-06-01T21:13:22.774Z,17.70
2019-06-01T21:15:52.646Z,17.60
2019-06-01T21:18:22.755Z,17.50
2019-06-01T21:20:52.762Z,17.50
2019-06-01T21:28:23.686Z,17.30
2019-06-01T21:30:54.089Z,17.30
2019-06-01T21:33:27.151Z,17.20
2019-06-01T21:35:55.489Z,17.10
2019-06-01T21:40:55.690Z,17.00
2019-06-01T21:45:56.428Z,16.90
2019-06-01T21:48:26.553Z,16.90
2019-06-01T22:05:55.549Z,16.60
2019-06-01T22:08:25.491Z,16.50
2019-06-01T22:18:25.826Z,16.40
2019-06-01T22:23:26.089Z,16.30
2019-06-01T22:33:24.588Z,16.10
2019-06-01T22:40:53.560Z,16.00
2019-06-01T22:43:38.955Z,16.00
2019-06-01T22:48:24.579Z,15.90
2019-06-01T22:53:24.144Z,15.80
2019-06-01T22:55:54.216Z,15.80
2019-06-01T23:05:52.027Z,15.70
2019-06-01T23:08:24.093Z,15.60
2019-06-01T23:10:53.741Z,15.60
2019-06-01T23:13:24.039Z,15.60
2019-06-01T23:15:54.105Z,15.50
2019-06-01T23:18:24.174Z,15.50
2019-06-01T23:20:53.964Z,15.50
2019-06-01T23:23:24.069Z,15.50
2019-06-01T23:25:53.945Z,15.40
2019-06-01T23:28:24.381Z,15.40
2019-06-01T23:30:54.257Z,15.40
2019-06-01T23:33:24.717Z,15.30
2019-06-01T23:35:54.948Z,15.30
2019-06-01T23:38:24.797Z,15.30
2019-06-01T23:40:54.857Z,15.30
2019-06-01T23:43:24.787Z,15.30
2019-06-01T23:45:54.880Z,15.30
2019-06-01T23:48:25.145Z,15.20
2019-06-01T23:50:54.968Z,15.20
2019-06-01T23:53:25.396Z,15.20
2019-06-01T23:55:55.322Z,15.20
2019-06-01T23:58:25.991Z,15.10
